Colfontaine, Belgium
Current Conditions -  °F | °C
As of 12:43 PM on Saturday 25 Oct 2014 (Local Time) from EBCV Reporting Station
Broken Clouds Broken Clouds  
Wind Chill: 55°   Ceiling: 900
Heat Index: 55°   Visibility: 3mi
Dew Point: 55°   Wind: 8mph
Humidity: 100%   Direction: 230°SW
Pressure: 30.12"   Gusts: NA
Location:  50.41°N, 3.86°E
Report Text: EBCV 251043Z AUTO 23007KT 5000 FEW005/// SCT007/// BKN009/// 13/13 Q1020 GRN
Loading
Personal Weather Stations






























Interactive Weather Map
Tropical Storm Tracking
New forecast layout! Learn more

10-Day Weather Forecast

Advertisements
Track Severe Weather on mobile